Time;durP1;ratioP1;P1;durP2;ratioP2;P2;SDS_P1;SDS_P2;PMS_P1;PMS_P2;Temp;Humidity;BMP_temperature;BMP_pressure;BME280_temperature;BME280_humidity;BME280_pressure;Samples;Min_cycle;Max_cycle;Signal;HPM_P1;HPM_P2
2022/06/30 00:01:37;;;;;;;8.85;7.20;;;;;;;18.79;74.88;101152.47;5075764;28;20063;-78
2022/06/30 00:04:02;;;;;;;7.63;6.90;;;;;;;18.81;74.90;101137.38;5088685;28;20042;-77
2022/06/30 00:06:28;;;;;;;9.70;7.63;;;;;;;18.83;74.72;101137.22;5098264;28;20035;-77
2022/06/30 00:08:53;;;;;;;8.27;7.47;;;;;;;18.84;74.72;101134.47;5097101;28;20054;-79
2022/06/30 00:11:20;;;;;;;8.27;7.40;;;;;;;18.86;74.79;101135.22;5080847;28;20032;-78
2022/06/30 00:13:46;;;;;;;8.65;7.32;;;;;;;18.87;74.55;101131.63;5095498;28;20035;-77
2022/06/30 00:16:11;;;;;;;11.55;8.82;;;;;;;18.88;74.78;101125.38;5099021;28;20107;-78
2022/06/30 00:18:37;;;;;;;11.05;8.23;;;;;;;18.89;74.91;101121.72;5097731;28;20109;-78
2022/06/30 00:21:06;;;;;;;9.13;8.25;;;;;;;18.88;75.04;101119.19;5077607;28;20023;-78
2022/06/30 00:23:31;;;;;;;;;;;;;;;18.88;75.03;101113.88;5091020;28;20048;-79
2022/06/30 00:25:57;;;;;;;9.20;8.18;;;;;;;18.88;74.97;101112.09;5090693;28;20731;-78
2022/06/30 00:28:23;;;;;;;9.70;8.48;;;;;;;18.87;75.19;101115.69;5090204;28;20015;-78
2022/06/30 00:30:50;;;;;;;12.57;8.73;;;;;;;18.87;75.13;101114.84;5086266;28;20040;-78
2022/06/30 00:33:16;;;;;;;10.50;9.52;;;;;;;18.86;75.33;101118.44;5089899;28;20038;-78
2022/06/30 00:35:42;;;;;;;14.57;8.93;;;;;;;18.86;75.46;101113.16;5072120;28;20079;-78
2022/06/30 00:38:07;;;;;;;9.77;8.18;;;;;;;18.85;75.18;101109.66;5098568;28;20340;-77
2022/06/30 00:40:37;;;;;;;9.90;8.40;;;;;;;18.85;75.26;101104.34;5079456;28;20046;-78
2022/06/30 00:43:03;;;;;;;9.40;8.40;;;;;;;18.84;75.26;101099.97;5064978;28;20039;-78
2022/06/30 00:45:28;;;;;;;9.52;8.38;;;;;;;18.85;75.36;101111.47;5089556;28;20252;-78
2022/06/30 00:47:54;;;;;;;8.77;7.93;;;;;;;18.85;75.19;101111.47;5088825;28;20020;-77
2022/06/30 00:50:19;;;;;;;9.70;8.80;;;;;;;18.84;75.06;101094.69;5084082;28;20044;-78
2022/06/30 00:52:46;;;;;;;11.70;8.50;;;;;;;18.85;74.85;101092.88;5072478;28;20036;-78
2022/06/30 00:55:15;;;;;;;10.45;9.18;;;;;;;18.83;75.38;101095.66;5084441;28;20040;-77
2022/06/30 00:57:41;;;;;;;10.38;9.25;;;;;;;18.80;75.63;101096.66;5070066;28;20021;-78
2022/06/30 01:00:08;;;;;;;9.75;8.85;;;;;;;18.76;75.72;101084.59;5072114;28;20036;-78
2022/06/30 01:07:43;;;;;;;9.20;8.40;;;;;;;18.76;75.52;101126.19;5085857;28;20241;-76
2022/06/30 01:12:52;;;;;;;11.30;10.10;;;;;;;18.73;75.20;101137.00;5071643;28;20093;-76
2022/06/30 01:15:19;;;;;;;12.98;8.35;;;;;;;18.72;74.99;101120.25;5093102;28;20035;-76
2022/06/30 01:17:46;;;;;;;9.85;8.38;;;;;;;18.73;74.99;101139.66;5090223;28;20036;-76
2022/06/30 01:20:13;;;;;;;8.80;7.95;;;;;;;18.72;74.77;101143.25;5073800;28;20035;-76
2022/06/30 01:22:39;;;;;;;12.55;8.18;;;;;;;18.70;74.82;101148.69;5090499;28;20035;-76
2022/06/30 01:25:06;;;;;;;9.50;8.45;;;;;;;18.72;74.74;101146.78;5095216;28;20103;-76
2022/06/30 01:27:32;;;;;;;9.02;8.13;;;;;;;18.72;74.45;101160.06;5094962;28;20051;-76
2022/06/30 01:29:58;;;;;;;7.78;7.18;;;;;;;18.72;74.59;101146.78;5082932;28;20250;-76
2022/06/30 01:32:25;;;;;;;8.50;7.75;;;;;;;18.73;74.31;101139.66;5095104;28;20027;-76
2022/06/30 01:34:51;;;;;;;8.93;7.32;;;;;;;18.74;73.99;101157.28;5095641;28;20038;-76
2022/06/30 01:37:16;;;;;;;9.63;7.60;;;;;;;18.74;74.22;101134.25;5075767;28;20519;-76
2022/06/30 01:39:42;;;;;;;8.52;7.70;;;;;;;18.75;74.29;101127.97;5057168;28;20266;-76
2022/06/30 01:42:08;;;;;;;7.28;6.65;;;;;;;18.74;74.25;101150.19;5074700;28;20074;-76
2022/06/30 01:44:33;;;;;;;8.23;6.63;;;;;;;18.74;74.26;101147.53;5092232;28;20031;-76
2022/06/30 01:46:58;;;;;;;10.05;7.20;;;;;;;18.75;74.24;101129.78;5073091;28;20433;-76
2022/06/30 01:49:24;;;;;;;7.97;6.72;;;;;;;18.75;74.36;101151.00;5093583;28;20036;-76
2022/06/30 01:51:49;;;;;;;8.85;6.85;;;;;;;18.74;74.04;101154.66;5077097;28;20254;-76
2022/06/30 01:54:15;;;;;;;7.47;6.53;;;;;;;18.75;74.14;101156.31;5087411;28;20036;-76
2022/06/30 01:56:40;;;;;;;7.45;6.85;;;;;;;18.74;74.13;101149.34;5064075;28;20028;-76
2022/06/30 01:59:07;;;;;;;8.80;7.35;;;;;;;18.74;74.21;101149.34;5094864;28;20335;-76
2022/06/30 02:01:33;;;;;;;8.13;6.85;;;;;;;18.73;74.49;101160.88;5056840;28;20052;-76
2022/06/30 02:04:46;;;;;;;9.38;7.63;;;;;;;18.73;74.40;101163.53;5072396;28;20105;-76
2022/06/30 02:06:45;;;;;;;7.57;6.80;;;;;;;18.71;74.33;101155.69;5074620;28;20051;-76
2022/06/30 02:09:11;;;;;;;13.13;7.32;;;;;;;18.70;74.65;101148.69;5085686;28;20095;-76
2022/06/30 02:11:37;;;;;;;7.78;6.95;;;;;;;18.68;74.34;101155.06;5076674;28;20036;-76
2022/06/30 02:14:02;;;;;;;9.38;6.90;;;;;;;18.67;74.69;101140.09;5098524;28;20040;-76
2022/06/30 02:16:28;;;;;;;8.07;7.30;;;;;;;18.65;74.63;101142.88;5101576;28;20036;-76
2022/06/30 02:18:53;;;;;;;7.75;7.07;;;;;;;18.64;74.83;101141.16;5101295;28;20090;-75
2022/06/30 02:21:19;;;;;;;8.10;7.22;;;;;;;18.62;74.79;101145.72;5102017;28;20084;-76
2022/06/30 02:23:44;;;;;;;7.32;6.70;;;;;;;18.60;74.90;101137.03;5101600;28;20032;-76
2022/06/30 02:26:10;;;;;;;8.52;7.07;;;;;;;18.58;74.92;101134.47;5082702;28;20028;-76
2022/06/30 02:28:35;;;;;;;7.55;6.88;;;;;;;18.55;74.95;101139.97;5084393;28;20077;-76
2022/06/30 02:31:01;;;;;;;7.70;7.00;;;;;;;18.54;75.10;101143.59;5080073;28;20051;-76
2022/06/30 02:33:26;;;;;;;11.10;7.07;;;;;;;18.53;75.07;101135.75;5093117;28;20106;-76
2022/06/30 02:35:51;;;;;;;8.35;7.28;;;;;;;18.51;75.32;101142.97;5101448;28;20112;-75
2022/06/30 02:38:17;;;;;;;8.07;7.28;;;;;;;18.49;75.18;101135.13;5066399;28;20032;-76
2022/06/30 02:40:42;;;;;;;7.47;6.65;;;;;;;18.46;75.11;101124.72;5083034;28;20048;-76
2022/06/30 02:43:08;;;;;;;9.32;7.55;;;;;;;18.44;75.21;101120.47;5100704;28;20054;-76
2022/06/30 02:45:33;;;;;;;8.43;7.53;;;;;;;18.44;75.36;101131.09;5100318;28;20234;-76
2022/06/30 02:47:59;;;;;;;7.20;6.60;;;;;;;18.41;75.34;101140.13;5084006;28;20056;-76
2022/06/30 02:50:24;;;;;;;7.97;6.95;;;;;;;18.40;75.46;101136.59;5086360;28;20040;-76
2022/06/30 02:52:50;;;;;;;7.53;6.93;;;;;;;18.38;75.22;101146.47;5086277;28;20036;-75
2022/06/30 02:55:15;;;;;;;7.78;6.88;;;;;;;18.36;75.36;101139.59;5086703;28;20040;-76
2022/06/30 02:57:41;;;;;;;8.18;6.72;;;;;;;18.35;75.33;101137.88;5100356;28;20058;-76
2022/06/30 03:00:09;;;;;;;8.10;7.30;;;;;;;18.34;75.36;101138.84;5104121;28;20063;-76
2022/06/30 03:02:35;;;;;;;8.07;6.57;;;;;;;18.31;75.37;101129.28;5086513;28;20245;-76
2022/06/30 03:05:01;;;;;;;7.22;6.63;;;;;;;18.30;75.08;101127.59;5085620;28;20028;-76
2022/06/30 03:07:26;;;;;;;7.97;7.20;;;;;;;18.28;75.37;101120.69;5062932;28;20045;-76
2022/06/30 03:09:52;;;;;;;7.72;7.03;;;;;;;18.25;75.34;101127.06;5079929;28;20218;-76
2022/06/30 03:12:17;;;;;;;12.93;7.15;;;;;;;18.22;75.32;101124.59;5083060;28;20339;-76
2022/06/30 03:14:42;;;;;;;7.15;6.63;;;;;;;18.20;75.26;101126.53;5083476;28;20028;-76
2022/06/30 03:17:08;;;;;;;7.75;6.95;;;;;;;18.17;75.40;101132.91;5075037;28;20285;-76
2022/06/30 03:19:33;;;;;;;7.35;6.57;;;;;;;18.16;75.56;101127.69;5068880;28;20051;-76
2022/06/30 03:21:58;;;;;;;8.65;6.60;;;;;;;18.14;75.43;101122.50;5072185;28;20036;-75
2022/06/30 03:24:24;;;;;;;7.45;6.68;;;;;;;18.12;75.46;101113.81;5062272;28;20082;-76
2022/06/30 03:26:50;;;;;;;7.45;6.75;;;;;;;18.11;75.39;101108.59;5074822;28;20368;-76
2022/06/30 03:29:17;;;;;;;7.53;6.47;;;;;;;18.08;75.64;101107.03;5064456;28;20044;-76
2022/06/30 03:31:42;;;;;;;11.23;7.15;;;;;;;18.06;75.63;101111.53;5064035;28;20064;-76
2022/06/30 03:34:08;;;;;;;6.28;5.78;;;;;;;18.03;75.66;101104.66;5079964;28;20235;-76
2022/06/30 03:36:33;;;;;;;6.72;6.15;;;;;;;18.02;75.20;101107.41;5080259;28;20082;-76
2022/06/30 03:38:59;;;;;;;8.80;6.22;;;;;;;18.02;75.28;101107.41;5063651;28;20034;-76
2022/06/30 03:41:24;;;;;;;6.72;6.10;;;;;;;18.00;75.32;101101.38;5082145;28;20049;-76
2022/06/30 03:43:50;;;;;;;6.60;6.00;;;;;;;17.98;75.39;101101.47;5082056;28;20058;-75
2022/06/30 03:46:15;;;;;;;10.95;5.35;;;;;;;17.95;75.34;101114.91;5077330;28;20032;-76
2022/06/30 03:48:41;;;;;;;5.88;5.28;;;;;;;17.95;75.37;101120.22;5059593;28;20037;-75
2022/06/30 03:51:07;;;;;;;5.80;5.30;;;;;;;17.94;75.35;101115.06;5076875;28;20266;-76
2022/06/30 03:53:33;;;;;;;5.70;5.18;;;;;;;17.91;75.38;101121.38;5061722;28;20059;-75
2022/06/30 03:55:58;;;;;;;5.13;4.80;;;;;;;17.90;75.18;101124.13;5053831;28;20040;-76
2022/06/30 03:58:24;;;;;;;5.22;4.75;;;;;;;17.88;75.28;101121.59;5080948;28;20043;-76
2022/06/30 04:00:49;;;;;;;7.13;4.72;;;;;;;17.86;75.29;101120.00;5080425;28;20048;-76
2022/06/30 04:03:14;;;;;;;6.82;4.32;;;;;;;17.84;75.47;101123.59;5052306;28;20288;-76
2022/06/30 04:05:40;;;;;;;4.70;4.10;;;;;;;17.83;75.50;101121.03;5083128;28;20040;-76
2022/06/30 04:08:06;;;;;;;4.57;4.18;;;;;;;17.82;75.15;101125.47;5083599;28;20108;-75
2022/06/30 04:10:31;;;;;;;4.55;4.20;;;;;;;17.81;75.28;101130.88;5082611;28;20039;-75
2022/06/30 04:12:57;;;;;;;4.03;3.67;;;;;;;17.80;75.09;101161.81;5082790;28;20032;-75
2022/06/30 04:15:22;;;;;;;4.95;3.60;;;;;;;17.79;75.15;101170.72;5101559;28;20072;-75
2022/06/30 04:17:48;;;;;;;4.18;2.53;;;;;;;17.78;75.03;101142.50;5076434;28;20202;-76
2022/06/30 04:20:16;;;;;;;2.92;2.22;;;;;;;17.78;75.32;101150.47;5081490;28;20033;-75
2022/06/30 04:22:51;;;;;;;3.53;2.58;;;;;;;17.78;75.46;101165.50;5074781;28;20063;-75
2022/06/30 04:25:17;;;;;;;2.90;2.40;;;;;;;17.78;75.13;101161.06;5082993;28;20024;-75
2022/06/30 04:27:44;;;;;;;5.32;2.60;;;;;;;17.76;75.16;101162.97;5101539;28;20032;-75
2022/06/30 04:30:10;;;;;;;3.05;2.38;;;;;;;17.76;75.04;101160.31;5101156;28;20114;-75
2022/06/30 04:32:38;;;;;;;3.63;2.50;;;;;;;17.76;75.06;101162.13;5066859;28;20058;-75
2022/06/30 04:35:09;;;;;;;3.75;3.45;;;;;;;17.77;75.06;101177.06;5100635;28;20040;-75
2022/06/30 04:37:35;;;;;;;4.60;4.20;;;;;;;17.77;74.99;101195.59;5097158;28;20098;-75
2022/06/30 04:42:45;;;;;;;4.43;3.97;;;;;;;17.73;75.77;101176.41;5100652;28;20055;-75
2022/06/30 04:45:10;;;;;;;4.55;4.15;;;;;;;17.73;75.57;101178.22;5100558;28;20061;-75
2022/06/30 04:47:36;;;;;;;4.40;3.97;;;;;;;17.75;75.37;101184.25;5063336;28;20028;-75
2022/06/30 04:50:03;;;;;;;8.20;4.13;;;;;;;17.75;75.36;101182.44;5101303;28;20040;-75
2022/06/30 04:52:29;;;;;;;5.53;3.95;;;;;;;17.74;75.17;101178.09;5096842;28;20104;-75
2022/06/30 04:54:54;;;;;;;5.70;3.15;;;;;;;17.76;74.60;101188.63;5083207;28;20294;-75
2022/06/30 04:57:19;;;;;;;3.30;2.75;;;;;;;17.77;75.28;101199.13;5101259;28;20052;-75
2022/06/30 04:59:45;;;;;;;5.82;3.08;;;;;;;17.76;74.99;101199.22;5079201;28;20226;-75
2022/06/30 05:02:10;;;;;;;4.05;2.53;;;;;;;17.78;75.00;101199.94;5094271;28;20044;-75
2022/06/30 05:04:35;;;;;;;2.63;2.00;;;;;;;17.78;75.10;101207.91;5055837;28;20044;-75
2022/06/30 05:07:01;;;;;;;2.85;2.00;;;;;;;17.79;74.64;101204.28;5069127;28;20118;-75
2022/06/30 05:09:26;;;;;;;3.55;2.20;;;;;;;17.80;74.83;101203.34;5081748;28;20376;-75
2022/06/30 05:11:51;;;;;;;2.97;1.90;;;;;;;17.80;75.20;101190.94;5080520;28;20066;-75
2022/06/30 05:14:17;;;;;;;2.15;1.60;;;;;;;17.83;75.19;101203.16;5100640;28;20345;-75
2022/06/30 05:16:42;;;;;;;2.38;1.50;;;;;;;17.82;75.20;101204.94;5069834;28;20047;-75
2022/06/30 05:19:08;;;;;;;3.25;1.35;;;;;;;17.83;75.29;101208.47;5081230;28;20024;-75
2022/06/30 05:21:33;;;;;;;4.43;2.00;;;;;;;17.83;75.57;101221.69;5079800;28;20059;-75
2022/06/30 05:26:42;;;;;;;7.18;2.20;;;;;;;17.81;77.13;101203.25;5070673;28;20039;-75
2022/06/30 05:29:08;;;;;;;3.33;1.80;;;;;;;17.82;76.85;101209.38;5082395;28;20221;-75
2022/06/30 05:31:33;;;;;;;2.08;1.60;;;;;;;17.82;76.59;101212.03;5093590;28;20036;-75
2022/06/30 05:33:58;;;;;;;1.85;1.45;;;;;;;17.83;76.37;101201.34;5079418;28;20061;-75
2022/06/30 05:36:24;;;;;;;3.90;1.38;;;;;;;17.82;76.23;101194.34;5080346;28;20044;-75
2022/06/30 05:38:49;;;;;;;2.78;1.40;;;;;;;17.83;76.18;101196.06;5085277;28;20040;-75
2022/06/30 05:41:15;;;;;;;1.70;1.00;;;;;;;17.84;76.37;101197.75;5081370;28;20044;-75
2022/06/30 05:43:40;;;;;;;3.38;1.80;;;;;;;17.82;76.81;101194.34;5079042;28;20054;-75
2022/06/30 05:46:05;;;;;;;1.58;1.23;;;;;;;17.83;76.86;101187.25;5082417;28;20280;-75
2022/06/30 05:48:31;;;;;;;2.05;1.40;;;;;;;17.83;76.93;101177.50;5100631;28;20040;-75
2022/06/30 05:50:56;;;;;;;4.35;1.52;;;;;;;17.84;76.92;101191.59;5072720;28;20055;-75
2022/06/30 05:53:21;;;;;;;2.38;1.50;;;;;;;17.85;76.70;101182.75;5093545;28;20040;-76
2022/06/30 05:55:47;;;;;;;3.60;1.52;;;;;;;17.85;76.65;101185.38;5062207;28;20036;-75
2022/06/30 05:58:16;;;;;;;3.45;1.45;;;;;;;17.86;76.65;101188.88;5096249;28;20066;-75
2022/06/30 06:00:41;;;;;;;4.38;1.60;;;;;;;17.87;76.95;101190.59;5098784;28;20109;-75
2022/06/30 06:03:07;;;;;;;3.10;1.48;;;;;;;17.85;76.78;101190.69;5091586;28;20044;-75
2022/06/30 06:05:33;;;;;;;1.63;1.40;;;;;;;17.86;76.41;101184.41;5090763;28;20046;-75
2022/06/30 06:08:08;;;;;;;3.38;1.48;;;;;;;17.87;76.22;101185.28;5057926;28;20232;-75
2022/06/30 06:10:34;;;;;;;3.63;1.30;;;;;;;17.88;75.87;101184.31;5072341;28;20040;-75
2022/06/30 06:12:59;;;;;;;2.47;1.30;;;;;;;17.89;76.06;101192.19;5078393;28;20216;-75
2022/06/30 06:15:25;;;;;;;2.85;1.17;;;;;;;17.89;75.79;101191.34;5079600;28;20050;-75
2022/06/30 06:17:50;;;;;;;3.03;1.10;;;;;;;17.90;75.94;101200.97;5097011;28;20027;-75
2022/06/30 06:20:17;;;;;;;3.50;1.27;;;;;;;17.89;75.48;101202.78;5063622;28;20065;-75
2022/06/30 06:22:43;;;;;;;3.30;1.10;;;;;;;17.90;75.18;101209.78;5092400;28;20095;-75
2022/06/30 06:25:09;;;;;;;2.50;1.02;;;;;;;17.90;75.19;101200.97;5094885;28;20448;-75
2022/06/30 06:27:36;;;;;;;1.35;1.08;;;;;;;17.90;75.17;101190.38;5079000;28;20028;-75
2022/06/30 06:30:03;;;;;;;2.45;1.00;;;;;;;17.90;75.44;101196.53;5071594;28;20393;-76
2022/06/30 06:32:29;;;;;;;3.28;1.10;;;;;;;17.89;74.89;101192.19;5089495;28;20092;-75
2022/06/30 06:34:55;;;;;;;4.70;1.60;;;;;;;17.86;74.85;101195.03;5094233;28;20105;-75
2022/06/30 06:37:20;;;;;;;2.22;1.20;;;;;;;17.88;74.83;101202.88;5094665;28;20037;-75
2022/06/30 06:39:45;;;;;;;2.72;1.10;;;;;;;17.89;74.82;101212.53;5091389;28;20043;-75
2022/06/30 06:42:11;;;;;;;4.15;1.30;;;;;;;17.89;74.84;101210.72;5095801;28;20036;-75
2022/06/30 06:44:36;;;;;;;3.42;1.23;;;;;;;17.92;74.85;101214.97;5081749;28;20039;-76
2022/06/30 06:47:02;;;;;;;2.38;1.00;;;;;;;17.93;74.99;101214.03;5101150;28;20354;-75
2022/06/30 06:49:27;;;;;;;1.95;0.82;;;;;;;17.94;74.89;101219.22;5096566;28;20088;-75
2022/06/30 06:51:53;;;;;;;1.98;0.90;;;;;;;17.94;74.55;101215.72;5100869;28;20043;-75
2022/06/30 06:54:18;;;;;;;3.60;1.27;;;;;;;17.95;74.61;101214.75;5081850;28;20020;-76
2022/06/30 06:56:44;;;;;;;2.30;1.00;;;;;;;17.96;74.46;101219.97;5095709;28;20223;-75
2022/06/30 06:59:09;;;;;;;3.75;1.70;;;;;;;17.97;74.39;101212.88;5099578;28;20363;-76
2022/06/30 07:01:35;;;;;;;1.73;1.05;;;;;;;17.97;74.52;101215.50;5079156;28;20040;-75
2022/06/30 07:04:00;;;;;;;2.33;1.10;;;;;;;17.97;74.49;101216.38;5082604;28;20044;-75
2022/06/30 07:06:26;;;;;;;5.35;1.15;;;;;;;17.97;74.37;101221.69;5093034;28;20055;-75
2022/06/30 07:08:51;;;;;;;4.25;1.33;;;;;;;17.98;74.16;101231.31;5079378;28;20051;-75
2022/06/30 07:11:17;;;;;;;5.45;1.00;;;;;;;17.99;73.90;101233.03;5083907;28;20036;-75
2022/06/30 07:13:42;;;;;;;3.40;0.90;;;;;;;18.01;73.57;101243.53;5091561;28;20054;-75
2022/06/30 07:16:07;;;;;;;2.45;1.42;;;;;;;18.02;73.55;101239.91;5070005;28;20036;-75
2022/06/30 07:18:33;;;;;;;3.53;0.85;;;;;;;18.02;73.14;101240.75;5077150;28;20095;-76
2022/06/30 07:20:58;;;;;;;3.22;1.10;;;;;;;18.03;73.45;101231.03;5102849;28;20105;-75
2022/06/30 07:23:24;;;;;;;1.85;0.98;;;;;;;18.05;73.52;101229.13;5066785;28;20099;-75
2022/06/30 07:25:49;;;;;;;4.55;1.20;;;;;;;18.07;73.29;101235.16;5082913;28;20356;-75
2022/06/30 07:28:14;;;;;;;2.05;0.80;;;;;;;18.07;73.13;101232.50;5062711;28;20039;-75
2022/06/30 07:30:40;;;;;;;2.88;1.10;;;;;;;18.08;73.14;101234.22;5080672;28;20040;-75
2022/06/30 07:33:05;;;;;;;1.55;1.00;;;;;;;18.08;73.35;101236.88;5099572;28;20067;-75
2022/06/30 07:35:31;;;;;;;2.42;0.90;;;;;;;18.08;72.82;101236.88;5082304;28;20138;-75
2022/06/30 07:37:56;;;;;;;2.25;1.00;;;;;;;18.10;73.06;101242.91;5063928;28;20040;-75
2022/06/30 07:40:22;;;;;;;3.65;1.00;;;;;;;18.11;72.88;101249.91;5101009;28;20044;-76
2022/06/30 07:42:48;;;;;;;1.73;0.93;;;;;;;18.14;73.08;101252.38;5101731;28;20050;-75
2022/06/30 07:45:13;;;;;;;4.32;1.30;;;;;;;18.15;73.31;101254.03;5102433;28;20039;-75
2022/06/30 07:47:40;;;;;;;6.85;1.50;;;;;;;18.16;73.42;101263.72;5086755;28;20020;-75
2022/06/30 07:50:07;;;;;;;4.32;1.60;;;;;;;18.19;72.89;101262.66;5101463;28;20261;-75
2022/06/30 07:52:35;;;;;;;3.33;1.00;;;;;;;18.20;73.09;101267.84;5102515;28;20039;-75
2022/06/30 07:55:02;;;;;;;3.22;1.00;;;;;;;18.21;72.98;101266.06;5100662;28;20039;-75
2022/06/30 07:57:27;;;;;;;3.75;1.33;;;;;;;18.23;72.97;101265.00;5080695;28;20055;-75
2022/06/30 07:59:53;;;;;;;2.65;1.20;;;;;;;18.27;73.04;101262.16;5096174;28;20108;-75
2022/06/30 08:02:19;;;;;;;4.20;1.10;;;;;;;18.28;73.04;101270.00;5083718;28;20028;-75
2022/06/30 08:04:44;;;;;;;2.10;0.80;;;;;;;18.29;72.97;101269.06;5096363;28;20035;-75
2022/06/30 08:07:10;;;;;;;0.93;0.82;;;;;;;18.30;72.88;101273.41;5081391;28;20059;-75
2022/06/30 08:09:36;;;;;;;3.58;1.15;;;;;;;18.32;73.03;101268.84;5056909;28;20036;-75
2022/06/30 08:12:01;;;;;;;1.75;0.93;;;;;;;18.34;72.64;101276.72;5042103;28;20020;-75
2022/06/30 08:14:26;;;;;;;1.77;1.20;;;;;;;18.37;72.68;101276.47;5077769;28;20052;-75
2022/06/30 08:16:52;;;;;;;3.33;0.95;;;;;;;18.39;73.01;101277.22;5069991;28;20039;-75
2022/06/30 08:19:19;;;;;;;3.47;1.40;;;;;;;18.42;73.21;101279.69;5094075;28;20043;-75
2022/06/30 08:21:45;;;;;;;2.05;1.10;;;;;;;18.46;72.78;101277.69;5098910;28;20042;-75
2022/06/30 08:24:10;;;;;;;2.25;1.13;;;;;;;18.47;72.15;101284.69;5076081;28;20035;-76
2022/06/30 08:26:36;;;;;;;2.15;0.80;;;;;;;18.50;71.83;101280.03;5061198;28;20057;-75
2022/06/30 08:29:01;;;;;;;2.78;0.90;;;;;;;18.50;71.89;101273.84;5086116;28;20028;-76
2022/06/30 08:31:28;;;;;;;1.38;0.80;;;;;;;18.53;71.82;101281.63;5086607;28;20062;-75
2022/06/30 08:33:54;;;;;;;3.42;0.95;;;;;;;18.54;71.67;101267.41;5075188;28;20422;-75
2022/06/30 08:36:20;;;;;;;1.95;0.85;;;;;;;18.55;71.70;101269.94;5050673;28;20039;-75
2022/06/30 08:38:46;;;;;;;2.60;0.93;;;;;;;18.57;71.54;101269.84;5073715;28;20035;-75
2022/06/30 08:43:58;;;;;;;4.30;1.25;;;;;;;18.61;71.78;101281.97;5093999;28;20714;-75
2022/06/30 08:46:27;;;;;;;2.50;1.15;;;;;;;18.62;71.85;101275.69;5090127;28;20047;-75
2022/06/30 08:48:53;;;;;;;4.85;1.50;;;;;;;18.64;71.60;101281.75;5074295;28;20024;-75
2022/06/30 08:51:20;;;;;;;3.30;1.35;;;;;;;18.65;71.27;101272.00;5078526;28;20413;-75
2022/06/30 08:53:52;;;;;;;1.52;0.93;;;;;;;18.67;71.14;101276.25;5093353;28;20315;-75
2022/06/30 08:56:18;;;;;;;6.18;1.27;;;;;;;18.69;71.07;101270.84;5070317;28;20068;-76
2022/06/30 08:58:45;;;;;;;4.97;1.35;;;;;;;18.70;70.49;101272.50;5083215;28;20047;-76
2022/06/30 09:01:12;;;;;;;3.15;1.30;;;;;;;18.73;70.45;101282.94;5087041;28;20036;-76
2022/06/30 09:03:38;;;;;;;2.97;1.42;;;;;;;18.75;70.44;101273.91;5077901;28;20044;-76
2022/06/30 09:06:07;;;;;;;1.95;1.10;;;;;;;18.78;70.90;101284.31;5096044;28;20052;-76
2022/06/30 09:08:33;;;;;;;1.77;1.05;;;;;;;18.81;71.15;101296.56;5077423;28;20024;-75
2022/06/30 09:10:58;;;;;;;2.88;1.15;;;;;;;18.82;70.98;101279.66;5095504;28;20028;-75
2022/06/30 09:13:24;;;;;;;1.88;1.00;;;;;;;18.85;71.25;101282.13;5072311;28;20266;-75
2022/06/30 09:15:50;;;;;;;4.53;1.15;;;;;;;18.87;70.84;101280.22;5075423;28;20027;-75
2022/06/30 09:18:27;;;;;;;2.97;1.33;;;;;;;18.89;70.58;101272.16;5076696;28;20089;-75
2022/06/30 09:20:53;;;;;;;3.20;1.42;;;;;;;18.91;70.86;101284.34;5094733;28;20042;-75
2022/06/30 09:23:27;;;;;;;4.38;1.80;;;;;;;18.93;70.80;101274.47;5096794;28;20040;-75
2022/06/30 09:25:54;;;;;;;4.18;1.50;;;;;;;18.95;70.90;101275.22;5081990;28;20317;-75
2022/06/30 09:28:43;;;;;;;2.33;1.40;;;;;;;18.95;70.97;101285.81;5093797;28;20368;-75
2022/06/30 09:31:14;;;;;;;2.80;1.48;;;;;;;18.99;71.07;101295.28;5087965;28;20384;-75
2022/06/30 09:33:41;;;;;;;4.95;1.70;;;;;;;19.03;71.17;101289.75;5096512;28;20095;-76
2022/06/30 09:36:20;;;;;;;1.90;1.67;;;;;;;19.09;71.51;101290.19;5072082;28;20043;-75
2022/06/30 09:39:08;;;;;;;2.72;1.48;;;;;;;19.13;71.62;101291.66;5096418;28;20087;-75
2022/06/30 09:41:36;;;;;;;2.57;1.50;;;;;;;19.17;70.99;101294.97;5082791;28;20321;-75
2022/06/30 09:44:28;;;;;;;4.22;1.73;;;;;;;19.20;71.21;101294.75;5079980;28;20512;-75
2022/06/30 09:46:58;;;;;;;4.88;1.73;;;;;;;19.24;71.29;101298.03;5081040;28;20063;-75
2022/06/30 09:49:39;;;;;;;3.38;1.60;;;;;;;19.27;71.19;101301.34;5093787;28;20044;-75
2022/06/30 09:52:14;;;;;;;3.22;1.65;;;;;;;19.29;71.32;101302.06;5093158;28;20433;-75
2022/06/30 09:54:52;;;;;;;4.57;1.90;;;;;;;19.34;71.69;101309.72;5095398;28;20032;-75
2022/06/30 09:57:18;;;;;;;5.82;2.13;;;;;;;19.35;71.43;101312.25;5097797;28;20024;-75
2022/06/30 09:59:43;;;;;;;2.88;1.67;;;;;;;19.37;70.96;101307.72;5068415;28;20038;-75
2022/06/30 10:02:10;;;;;;;3.28;1.60;;;;;;;19.41;71.05;101310.13;5082233;28;20601;-75
2022/06/30 10:04:53;;;;;;;4.20;1.88;;;;;;;19.44;70.99;101310.75;5098488;28;20038;-75
2022/06/30 10:07:19;;;;;;;2.38;1.60;;;;;;;19.48;71.24;101303.44;5082380;28;20073;-75
2022/06/30 10:09:45;;;;;;;2.25;1.70;;;;;;;19.51;71.16;101300.56;5083570;28;20039;-75
2022/06/30 10:12:11;;;;;;;4.22;1.20;;;;;;;19.54;70.77;101309.16;5089862;28;20019;-75
2022/06/30 10:14:37;;;;;;;3.33;1.50;;;;;;;19.58;70.71;101309.78;5079799;28;20033;-75
2022/06/30 10:17:06;;;;;;;3.80;1.80;;;;;;;19.61;70.73;101309.59;5098096;28;20089;-75
2022/06/30 10:19:32;;;;;;;2.40;1.38;;;;;;;19.63;70.25;101304.13;5081672;28;20026;-74
2022/06/30 10:21:58;;;;;;;2.40;1.02;;;;;;;19.65;69.99;101295.13;5103011;28;20093;-75
2022/06/30 10:24:23;;;;;;;1.88;1.35;;;;;;;19.69;70.52;101304.56;5061544;28;20032;-75
2022/06/30 10:29:34;;;;;;;2.08;1.40;;;;;;;19.74;69.86;101307.78;5088240;28;20035;-76
2022/06/30 10:32:14;;;;;;;1.75;1.40;;;;;;;19.80;70.69;101311.78;5104906;28;20130;-75
2022/06/30 10:34:46;;;;;;;3.10;1.50;;;;;;;19.85;71.12;101312.31;5102870;28;20040;-75
2022/06/30 10:37:24;;;;;;;4.15;1.90;;;;;;;19.88;71.01;101311.22;5098430;28;20058;-75
2022/06/30 10:39:58;;;;;;;3.33;1.52;;;;;;;19.92;71.15;101302.94;5077073;28;20050;-75
2022/06/30 10:42:50;;;;;;;1.98;1.13;;;;;;;19.98;70.70;101316.75;5097508;28;20028;-75
2022/06/30 10:45:30;;;;;;;2.58;1.30;;;;;;;20.04;70.83;101313.63;5094258;28;20338;-75
2022/06/30 10:48:01;;;;;;;4.57;1.55;;;;;;;20.06;69.89;101309.88;5096831;28;20381;-75
2022/06/30 10:50:41;;;;;;;2.13;1.20;;;;;;;20.10;70.49;101310.50;5101607;28;20024;-75
2022/06/30 10:53:15;;;;;;;1.50;0.98;;;;;;;20.11;70.69;101313.06;5095487;28;20032;-75
2022/06/30 10:55:46;;;;;;;3.30;1.33;;;;;;;20.10;70.59;101311.38;5091614;28;20036;-75
2022/06/30 10:58:12;;;;;;;2.83;1.40;;;;;;;20.10;70.64;101321.13;5083255;28;20092;-75
2022/06/30 11:00:55;;;;;;;1.95;1.38;;;;;;;20.06;70.41;101317.84;5082788;28;20024;-75
2022/06/30 11:03:34;;;;;;;1.60;1.10;;;;;;;20.05;70.41;101326.81;5095769;28;20058;-75
2022/06/30 11:06:02;;;;;;;1.55;0.90;;;;;;;20.04;70.92;101313.63;5095575;28;20041;-75
2022/06/30 11:08:38;;;;;;;;;;;;;;;20.02;70.76;101327.03;5099944;28;20035;-75
2022/06/30 11:11:28;;;;;;;1.98;1.20;;;;;;;20.01;70.63;101335.97;5083434;28;19926;-75
2022/06/30 11:14:02;;;;;;;1.85;1.30;;;;;;;19.98;70.54;101330.88;5083284;28;20026;-75
2022/06/30 11:16:38;;;;;;;1.73;1.30;;;;;;;19.97;70.13;101320.34;5099059;28;20043;-75
2022/06/30 11:19:12;;;;;;;2.88;1.30;;;;;;;19.93;69.87;101317.91;5101413;28;20301;-75
2022/06/30 11:21:42;;;;;;;2.45;1.38;;;;;;;19.93;70.13;101317.06;5082329;28;20035;-75
2022/06/30 11:24:09;;;;;;;7.18;1.55;;;;;;;19.92;70.24;101312.72;5087468;28;20023;-75
2022/06/30 11:29:23;;;;;;;2.03;1.30;;;;;;;19.90;70.46;101309.31;5082053;28;20087;-75
2022/06/30 11:31:50;;;;;;;1.27;1.02;;;;;;;19.90;70.23;101309.31;5080035;28;20096;-75
2022/06/30 11:34:18;;;;;;;1.65;1.20;;;;;;;19.90;70.06;101304.00;5055623;28;20297;-75
2022/06/30 11:36:45;;;;;;;2.17;1.33;;;;;;;19.91;70.03;101295.06;5096378;28;20047;-75
2022/06/30 11:39:18;;;;;;;2.45;1.35;;;;;;;19.92;70.05;101288.81;5096091;28;20031;-75
2022/06/30 11:41:57;;;;;;;2.35;1.20;;;;;;;19.96;70.46;101282.28;5063110;28;20016;-75
2022/06/30 11:44:25;;;;;;;2.90;1.35;;;;;;;19.98;70.29;101276.88;5078109;28;20104;-75
2022/06/30 11:46:54;;;;;;;2.03;1.25;;;;;;;19.97;70.38;101277.81;5079943;28;20028;-75